This is the latest recevied weather packets stored in our database for station/object KG7QQL. If no packets are shown the sender has not sent any weather packets the latest 10 day(s).
| Time | Temp. | Humidity | Pressure | Rain* | Wind** | Luminosity | Snow |
|---|---|---|---|---|---|---|---|
| 1777777623 | 18.89° C | 56% | - | 0 mm | - | - | - |
| 1777777320 | 19.44° C | 56% | - | 0 mm | - | - | - |
| 1777777017 | 19.44° C | 57% | - | 0 mm | - | - | - |
| 1777776715 | 19.44° C | 57% | - | 0 mm | - | - | - |
| 1777776411 | 19.44° C | 58% | - | 0 mm | - | - | - |
| 1777776108 | 18.89° C | 58% | - | 0 mm | - | - | - |
| 1777775805 | 18.89° C | 58% | - | 0 mm | - | - | - |
| 1777775502 | 19.44° C | 58% | - | 0 mm | - | - | - |
| 1777775198 | 19.44° C | 57% | - | 0 mm | - | - | - |
| 1777774897 | 19.44° C | 57% | - | 0 mm | - | - | - |
| 1777774595 | 20° C | 56% | - | 0 mm | - | - | - |
| 1777774291 | 20° C | 56% | - | 0 mm | - | - | - |
| 1777773988 | 20° C | 56% | - | 0 mm | - | - | - |
| 1777773686 | 19.44° C | 57% | - | 0 mm | - | - | - |
| 1777773383 | 18.33° C | 61% | - | 0 mm | - | - | - |
| 1777773080 | 18.89° C | 62% | - | 0 mm | - | - | - |
| 1777772775 | 20° C | 59% | - | 0 mm | - | - | - |
| 1777772473 | 20° C | 57% | - | 0 mm | - | - | - |
| 1777772170 | 20° C | 57% | - | 0 mm | - | - | - |
| 1777771868 | 20° C | 56% | - | 0 mm | - | - | - |
| 1777771565 | 21.11° C | 51% | - | 0 mm | - | - | - |
| 1777771262 | 21.11° C | 51% | - | 0 mm | - | - | - |
| 1777770958 | 21.11° C | 51% | - | 0 mm | - | - | - |
| 1777770656 | 21.11° C | 51% | - | 0 mm | - | - | - |
| 1777770351 | 20.56° C | 52% | - | 0 mm | - | - | - |
* Rain latest hour (hover to see other rain measurements)
** Current wind speed in m/s (hover to see current wind gust speed)